Time;durP1;ratioP1;P1;durP2;ratioP2;P2;SDS_P1;SDS_P2;PMS_P1;PMS_P2;Temp;Humidity;BMP_temperature;BMP_pressure;BME280_temperature;BME280_humidity;BME280_pressure;Samples;Min_cycle;Max_cycle;Signal;HPM_P1;HPM_P2
2021/11/11 00:01:51;;;;;;;26.67;19.00;;;6.10;99.90;;;;;;4999958;28;21351;-48
2021/11/11 00:04:19;;;;;;;24.43;17.73;;;6.00;99.90;;;;;;5000680;28;20243;-51
2021/11/11 00:06:46;;;;;;;24.70;17.70;;;6.00;99.90;;;;;;4998429;28;20636;-48
2021/11/11 00:09:12;;;;;;;33.47;18.50;;;6.30;99.90;;;;;;4997090;28;20479;-50
2021/11/11 00:11:39;;;;;;;25.60;18.83;;;6.40;99.90;;;;;;4999100;28;20908;-46
2021/11/11 00:14:04;;;;;;;30.33;19.33;;;6.50;99.90;;;;;;4997731;28;20447;-48
2021/11/11 00:16:30;;;;;;;27.23;18.90;;;6.50;99.90;;;;;;4997408;28;20942;-52
2021/11/11 00:18:55;;;;;;;36.03;18.63;;;6.40;99.90;;;;;;4994967;28;20276;-53
2021/11/11 00:21:21;;;;;;;24.20;16.77;;;6.30;99.90;;;;;;4984256;28;20219;-49
2021/11/11 00:23:47;;;;;;;28.27;18.20;;;6.50;99.90;;;;;;4980626;28;20197;-49
2021/11/11 00:26:13;;;;;;;29.17;17.83;;;6.60;99.90;;;;;;4997695;28;20828;-52
2021/11/11 00:28:38;;;;;;;28.23;17.97;;;6.60;99.90;;;;;;5003209;28;20833;-53
2021/11/11 00:31:04;;;;;;;26.80;17.80;;;6.70;99.90;;;;;;4996625;28;20376;-51
2021/11/11 00:33:30;;;;;;;23.30;17.97;;;6.70;99.90;;;;;;4993997;28;20661;-53
2021/11/11 00:35:56;;;;;;;28.43;17.83;;;6.80;99.90;;;;;;4998171;28;20190;-52
2021/11/11 00:38:21;;;;;;;27.07;18.17;;;6.90;99.90;;;;;;5000712;28;20211;-53
2021/11/11 00:40:47;;;;;;;25.20;16.30;;;7.00;99.90;;;;;;5000009;28;20214;-50
2021/11/11 00:43:13;;;;;;;27.83;18.97;;;6.90;99.90;;;;;;4997991;28;20568;-50
2021/11/11 00:45:38;;;;;;;26.07;17.20;;;6.90;99.90;;;;;;5001111;28;20189;-47
2021/11/11 00:48:06;;;;;;;25.53;17.43;;;6.80;99.90;;;;;;5000612;28;20188;-49
2021/11/11 00:50:33;;;;;;;23.67;17.20;;;6.70;99.90;;;;;;4997378;28;20208;-49
2021/11/11 00:52:59;;;;;;;20.87;15.97;;;6.70;99.90;;;;;;4996163;28;20517;-50
2021/11/11 00:55:25;;;;;;;21.07;16.90;;;6.60;99.90;;;;;;5002709;28;20483;-47
2021/11/11 00:57:51;;;;;;;23.03;17.33;;;6.70;99.90;;;;;;4999696;28;20941;-49
2021/11/11 01:00:18;;;;;;;20.47;15.10;;;6.70;99.90;;;;;;4996304;28;20221;-49
2021/11/11 01:02:46;;;;;;;24.70;16.80;;;6.60;99.90;;;;;;4998479;28;20476;-49
2021/11/11 01:05:12;;;;;;;23.00;16.30;;;6.60;99.90;;;;;;4996422;28;20436;-50
2021/11/11 01:07:38;;;;;;;24.23;16.67;;;6.60;99.90;;;;;;4997507;28;20476;-51
2021/11/11 01:10:10;;;;;;;21.20;16.43;;;6.60;99.90;;;;;;4997050;28;20973;-51
2021/11/11 01:12:36;;;;;;;23.53;16.30;;;6.50;99.90;;;;;;4994918;28;20191;-48
2021/11/11 01:15:05;;;;;;;26.30;18.40;;;6.50;99.90;;;;;;4996555;28;20432;-50
2021/11/11 01:17:30;;;;;;;22.60;17.90;;;6.50;99.90;;;;;;4996298;28;20448;-51
2021/11/11 01:19:57;;;;;;;20.57;16.00;;;6.50;99.90;;;;;;4998456;28;20492;-51
2021/11/11 01:22:22;;;;;;;22.90;16.70;;;6.50;99.90;;;;;;4991170;28;20197;-49
2021/11/11 01:24:48;;;;;;;26.10;18.00;;;6.50;99.90;;;;;;5001302;28;20472;-52
2021/11/11 01:27:14;;;;;;;24.20;17.30;;;6.50;99.90;;;;;;4995932;28;20270;-50
2021/11/11 01:29:40;;;;;;;27.40;18.80;;;6.40;99.90;;;;;;4995306;28;20556;-53
2021/11/11 01:32:06;;;;;;;23.63;16.60;;;6.40;99.90;;;;;;5001314;28;20666;-49
2021/11/11 01:34:32;;;;;;;26.07;16.90;;;6.20;99.90;;;;;;4998132;28;21026;-54
2021/11/11 01:36:57;;;;;;;25.00;17.40;;;6.30;99.90;;;;;;4998310;28;20425;-49
2021/11/11 01:39:23;;;;;;;26.50;16.83;;;6.10;99.90;;;;;;5002067;28;20204;-49
2021/11/11 01:41:50;;;;;;;28.63;18.20;;;6.00;99.90;;;;;;5001888;28;20702;-49
2021/11/11 01:44:18;;;;;;;31.50;18.30;;;6.20;99.90;;;;;;5003680;28;20489;-48
2021/11/11 01:46:44;;;;;;;25.03;19.37;;;6.30;99.90;;;;;;5002672;28;20914;-48
2021/11/11 01:49:10;;;;;;;24.37;18.20;;;6.40;99.90;;;;;;5000336;28;20470;-50
2021/11/11 01:51:36;;;;;;;27.20;18.43;;;6.40;99.90;;;;;;4998885;28;20463;-49
2021/11/11 01:54:03;;;;;;;29.07;18.20;;;6.20;99.90;;;;;;4999751;28;20428;-50
2021/11/11 01:56:28;;;;;;;25.63;17.53;;;6.00;99.90;;;;;;5002353;28;20444;-49
2021/11/11 01:58:55;;;;;;;30.63;19.70;;;6.10;99.90;;;;;;4999936;28;20815;-51
2021/11/11 02:01:21;;;;;;;32.43;20.20;;;6.00;99.90;;;;;;5001098;28;20659;-49
2021/11/11 02:03:47;;;;;;;27.87;18.70;;;6.20;99.90;;;;;;5002696;28;20465;-54
2021/11/11 02:06:13;;;;;;;28.40;18.40;;;6.30;99.90;;;;;;4999597;28;20224;-53
2021/11/11 02:08:39;;;;;;;28.47;19.17;;;6.10;99.90;;;;;;5001856;28;20451;-51
2021/11/11 02:11:05;;;;;;;27.57;18.30;;;6.30;99.90;;;;;;5002647;28;20456;-49
2021/11/11 02:13:30;;;;;;;37.03;18.50;;;6.20;99.90;;;;;;4998771;28;20232;-50
2021/11/11 02:15:56;;;;;;;30.30;18.97;;;6.30;99.90;;;;;;5000745;28;20436;-47
2021/11/11 02:18:22;;;;;;;32.17;19.90;;;6.20;99.90;;;;;;5001506;28;20196;-50
2021/11/11 02:20:48;;;;;;;42.53;18.10;;;6.10;99.90;;;;;;5002249;28;20205;-50
2021/11/11 02:23:16;;;;;;;26.53;18.07;;;6.00;99.90;;;;;;4997683;28;20197;-47
2021/11/11 02:25:43;;;;;;;27.63;17.20;;;6.20;99.90;;;;;;4999665;28;20802;-50
2021/11/11 02:28:12;;;;;;;25.97;17.63;;;6.40;99.90;;;;;;5003068;28;20443;-49
2021/11/11 02:30:40;;;;;;;26.27;17.20;;;6.40;99.90;;;;;;5000190;28;20491;-48
2021/11/11 02:33:12;;;;;;;31.13;19.23;;;6.30;99.90;;;;;;5000593;28;20436;-47
2021/11/11 02:35:38;;;;;;;25.93;16.87;;;6.00;99.90;;;;;;5002143;28;20436;-50
2021/11/11 02:38:04;;;;;;;28.87;16.50;;;6.10;99.90;;;;;;4998867;28;20447;-49
2021/11/11 02:40:31;;;;;;;27.13;17.50;;;6.00;99.90;;;;;;5000416;28;20988;-49
2021/11/11 02:42:56;;;;;;;24.83;15.80;;;6.10;99.90;;;;;;4998764;28;20470;-48
2021/11/11 02:45:26;;;;;;;25.67;17.10;;;6.10;99.90;;;;;;5000386;28;20924;-50
2021/11/11 02:47:53;;;;;;;22.87;15.10;;;6.20;99.90;;;;;;5002225;28;20571;-50
2021/11/11 02:50:19;;;;;;;27.83;16.50;;;5.80;99.90;;;;;;4999403;28;20453;-49
2021/11/11 02:52:47;;;;;;;25.80;18.97;;;5.60;99.90;;;;;;5003969;28;20459;-50
2021/11/11 02:55:13;;;;;;;26.53;18.03;;;5.70;99.90;;;;;;5000802;28;20453;-48
2021/11/11 02:57:40;;;;;;;28.23;19.90;;;5.80;99.90;;;;;;4998668;28;20535;-49
2021/11/11 03:00:16;;;;;;;25.80;17.23;;;5.80;99.90;;;;;;4999551;28;21030;-52
2021/11/11 03:02:44;;;;;;;25.30;16.47;;;5.90;99.90;;;;;;5000121;28;20536;-49
2021/11/11 03:05:15;;;;;;;27.87;17.60;;;6.10;99.90;;;;;;4998319;28;20432;-48
2021/11/11 03:07:41;;;;;;;26.40;18.70;;;6.00;99.90;;;;;;5002172;28;20863;-49
2021/11/11 03:10:11;;;;;;;31.20;18.77;;;5.90;99.90;;;;;;5002403;28;20506;-49
2021/11/11 03:12:40;;;;;;;25.43;17.50;;;5.90;99.90;;;;;;5000671;28;20457;-53
2021/11/11 03:15:07;;;;;;;23.83;16.63;;;5.90;99.90;;;;;;4997560;28;20425;-50
2021/11/11 03:17:32;;;;;;;33.33;19.87;;;5.80;99.90;;;;;;4995653;28;20857;-48
2021/11/11 03:19:58;;;;;;;28.17;18.20;;;5.50;99.90;;;;;;4989802;28;20467;-48
2021/11/11 03:22:24;;;;;;;35.03;19.00;;;5.60;99.90;;;;;;5001332;28;20292;-52
2021/11/11 03:24:51;;;;;;;30.50;19.13;;;5.80;99.90;;;;;;4998739;28;20520;-47
2021/11/11 03:27:17;;;;;;;30.57;17.60;;;5.90;99.90;;;;;;5002567;28;20649;-48
2021/11/11 03:29:45;;;;;;;22.30;16.53;;;5.90;99.90;;;;;;4999862;28;20480;-50
2021/11/11 03:32:11;;;;;;;20.20;16.40;;;5.70;99.90;;;;;;4998527;28;20433;-49
2021/11/11 03:34:37;;;;;;;21.70;17.50;;;5.80;99.90;;;;;;5002754;28;20428;-51
2021/11/11 03:37:03;;;;;;;24.17;17.10;;;5.70;99.90;;;;;;4996424;28;20190;-51
2021/11/11 03:39:29;;;;;;;24.33;16.37;;;5.40;99.90;;;;;;4999196;28;20252;-48
2021/11/11 03:41:55;;;;;;;24.40;17.93;;;5.50;99.90;;;;;;5000244;28;20437;-49
2021/11/11 03:44:23;;;;;;;30.50;17.97;;;5.60;99.90;;;;;;5003673;28;20535;-46
2021/11/11 03:46:52;;;;;;;30.23;17.80;;;5.60;99.90;;;;;;5000494;28;20471;-49
2021/11/11 03:49:17;;;;;;;21.47;16.07;;;5.60;99.90;;;;;;4998873;28;20440;-51
2021/11/11 03:51:44;;;;;;;25.27;16.77;;;5.60;99.90;;;;;;5001103;28;20516;-50
2021/11/11 03:54:13;;;;;;;26.90;18.77;;;5.40;99.90;;;;;;4997103;28;20467;-48
2021/11/11 03:56:40;;;;;;;36.30;17.47;;;5.30;99.90;;;;;;4996596;28;20440;-49
2021/11/11 03:59:06;;;;;;;27.10;18.80;;;5.30;99.90;;;;;;4997257;28;20430;-51
2021/11/11 04:01:32;;;;;;;28.87;18.70;;;5.40;99.90;;;;;;5001251;28;20611;-49
2021/11/11 04:03:57;;;;;;;28.20;19.57;;;5.20;99.90;;;;;;5000148;28;20185;-50
2021/11/11 04:06:23;;;;;;;32.60;20.07;;;4.80;99.90;;;;;;4999906;28;20854;-49
2021/11/11 04:08:48;;;;;;;34.63;18.73;;;4.80;99.90;;;;;;4997294;28;20197;-49
2021/11/11 04:11:14;;;;;;;33.07;19.00;;;4.60;99.90;;;;;;5000415;28;20425;-49
2021/11/11 04:13:40;;;;;;;38.20;20.57;;;4.40;99.90;;;;;;4998954;28;20192;-53
2021/11/11 04:16:06;;;;;;;30.10;17.27;;;4.30;99.90;;;;;;4999580;28;20198;-48
2021/11/11 04:18:32;;;;;;;36.97;20.67;;;4.20;99.90;;;;;;5002072;28;20440;-48
2021/11/11 04:20:58;;;;;;;32.60;18.00;;;4.30;99.90;;;;;;4996934;28;20475;-52
2021/11/11 04:23:24;;;;;;;35.33;19.00;;;4.50;99.90;;;;;;4999415;28;20201;-48
2021/11/11 04:26:02;;;;;;;44.47;20.20;;;4.60;99.90;;;;;;4997754;28;20506;-47
2021/11/11 04:28:31;;;;;;;38.00;21.43;;;4.60;99.90;;;;;;4997919;28;20437;-53
2021/11/11 04:31:02;;;;;;;36.70;21.07;;;4.60;99.90;;;;;;4998727;28;20472;-49
2021/11/11 04:33:28;;;;;;;52.60;19.93;;;4.40;99.90;;;;;;4998255;28;20459;-49
2021/11/11 04:35:59;;;;;;;55.60;19.60;;;4.40;99.90;;;;;;4996535;28;20471;-49
2021/11/11 04:41:28;;;;;;;43.90;22.73;;;4.60;99.90;;;;;;4999053;28;20478;-51
2021/11/11 04:49:23;;;;;;;36.83;19.07;;;4.20;99.90;;;;;;4996971;28;20448;-48
2021/11/11 04:52:13;;;;;;;30.80;19.60;;;4.10;99.90;;;;;;4998472;28;20192;-50
2021/11/11 05:03:00;;;;;;;53.00;20.43;;;3.80;99.90;;;;;;5001338;28;20427;-48
2021/11/11 05:05:26;;;;;;;42.50;20.57;;;3.90;99.90;;;;;;5000010;28;20440;-49
2021/11/11 05:07:53;;;;;;;39.43;20.33;;;4.10;99.90;;;;;;5002623;28;21056;-51
2021/11/11 05:10:18;;;;;;;31.10;19.40;;;4.40;99.90;;;;;;5000879;28;20213;-48
2021/11/11 05:12:44;;;;;;;32.60;20.70;;;4.20;99.90;;;;;;4993364;28;20486;-50
2021/11/11 05:15:10;;;;;;;35.07;18.40;;;4.40;99.90;;;;;;5000993;28;20241;-54
2021/11/11 05:17:36;;;;;;;31.47;18.03;;;4.30;99.90;;;;;;4999384;28;20182;-49
2021/11/11 05:20:02;;;;;;;37.40;19.00;;;4.50;99.90;;;;;;5002509;28;20295;-52
2021/11/11 05:22:28;;;;;;;33.23;18.27;;;4.50;99.90;;;;;;5000115;28;20420;-49
2021/11/11 05:24:53;;;;;;;33.53;19.00;;;4.10;99.90;;;;;;4998743;28;20441;-47
2021/11/11 05:27:22;;;;;;;36.57;17.60;;;4.30;99.90;;;;;;5004226;28;20214;-46
2021/11/11 05:29:48;;;;;;;31.33;17.17;;;4.20;99.90;;;;;;5000989;28;20249;-48
2021/11/11 05:32:14;;;;;;;32.43;16.53;;;4.30;99.90;;;;;;4999000;28;20432;-51
2021/11/11 05:34:39;;;;;;;31.53;17.57;;;4.30;99.90;;;;;;5002184;28;20240;-50
2021/11/11 05:37:05;;;;;;;31.07;16.67;;;4.30;99.90;;;;;;5001746;28;20190;-49
2021/11/11 05:39:32;;;;;;;35.20;20.63;;;4.40;99.90;;;;;;5001448;28;20209;-48
2021/11/11 05:41:58;;;;;;;36.60;18.83;;;4.20;99.90;;;;;;5002491;28;20451;-51
2021/11/11 05:44:24;;;;;;;31.30;18.30;;;4.30;99.90;;;;;;4998846;28;20927;-47
2021/11/11 05:46:49;;;;;;;38.17;19.30;;;4.20;99.90;;;;;;5003660;28;20467;-48
2021/11/11 05:49:15;;;;;;;37.03;18.60;;;4.00;99.90;;;;;;5001038;28;20233;-49
2021/11/11 05:51:41;;;;;;;28.83;17.53;;;4.10;99.90;;;;;;5001743;28;20243;-49
2021/11/11 05:54:07;;;;;;;36.57;19.43;;;4.10;99.90;;;;;;5005607;28;20589;-49
2021/11/11 05:56:33;;;;;;;33.63;18.00;;;4.20;99.90;;;;;;5007767;28;20195;-50
2021/11/11 05:58:58;;;;;;;32.30;16.70;;;4.30;99.90;;;;;;5000782;28;20440;-47
2021/11/11 06:01:25;;;;;;;35.07;17.73;;;4.30;99.90;;;;;;4999531;28;20222;-48
2021/11/11 06:03:51;;;;;;;31.37;16.90;;;4.20;99.90;;;;;;4999082;28;20403;-49
2021/11/11 06:06:16;;;;;;;34.30;17.30;;;4.30;99.90;;;;;;4997727;28;20976;-48
2021/11/11 06:08:42;;;;;;;35.53;19.60;;;4.10;99.90;;;;;;5002045;28;20259;-49
2021/11/11 06:11:08;;;;;;;38.00;18.20;;;4.20;99.90;;;;;;4998866;28;20212;-50
2021/11/11 06:13:33;;;;;;;40.13;19.47;;;4.00;99.90;;;;;;4984069;28;20740;-49
2021/11/11 06:15:59;;;;;;;30.63;19.40;;;4.20;99.90;;;;;;4987582;28;20173;-48
2021/11/11 06:18:25;;;;;;;30.13;18.20;;;4.10;99.90;;;;;;4997150;28;20210;-50
2021/11/11 06:20:59;;;;;;;35.00;17.17;;;4.00;99.90;;;;;;4995366;28;20977;-49
2021/11/11 06:23:26;;;;;;;33.23;20.27;;;4.10;99.90;;;;;;4998242;28;20258;-48
2021/11/11 06:25:52;;;;;;;31.37;17.53;;;4.30;99.90;;;;;;4998108;28;20438;-48
2021/11/11 06:28:17;;;;;;;35.17;16.87;;;4.30;99.90;;;;;;4997309;28;20688;-49
2021/11/11 06:30:43;;;;;;;32.10;18.23;;;4.20;99.90;;;;;;4997258;28;20885;-47
2021/11/11 06:33:09;;;;;;;36.93;20.40;;;4.20;99.90;;;;;;4997472;28;20196;-50
2021/11/11 06:35:34;;;;;;;38.87;17.83;;;4.30;99.90;;;;;;4998045;28;20184;-51
2021/11/11 06:38:01;;;;;;;29.97;19.50;;;4.30;99.90;;;;;;4995922;28;20320;-54
2021/11/11 06:40:28;;;;;;;38.63;20.20;;;4.30;99.90;;;;;;4999157;28;20255;-52
2021/11/11 06:42:56;;;;;;;33.07;18.93;;;4.50;99.90;;;;;;4985968;28;20957;-48
2021/11/11 06:45:22;;;;;;;32.33;18.03;;;4.50;99.90;;;;;;5000172;28;20448;-51
2021/11/11 06:47:47;;;;;;;48.47;17.87;;;4.40;99.90;;;;;;4993219;28;20542;-50
2021/11/11 06:50:13;;;;;;;32.87;19.50;;;4.20;99.90;;;;;;4999300;28;20451;-49
2021/11/11 06:52:39;;;;;;;39.97;20.60;;;4.30;99.90;;;;;;4996053;28;20273;-54
2021/11/11 06:55:08;;;;;;;36.53;19.07;;;4.10;99.90;;;;;;4996492;28;20790;-48
2021/11/11 06:57:35;;;;;;;38.03;19.40;;;4.30;99.90;;;;;;4991143;28;20436;-50
2021/11/11 07:00:01;;;;;;;40.40;22.17;;;4.60;99.90;;;;;;4999896;28;20459;-51
2021/11/11 07:02:26;;;;;;;52.63;22.10;;;4.50;99.90;;;;;;4999512;28;20492;-50
2021/11/11 07:04:55;;;;;;;34.43;21.10;;;4.80;99.90;;;;;;4998784;28;20480;-52
2021/11/11 07:07:20;;;;;;;46.20;23.00;;;4.90;99.90;;;;;;5001513;28;20831;-49
2021/11/11 07:09:46;;;;;;;45.20;22.13;;;4.60;99.90;;;;;;4999915;28;20453;-49
2021/11/11 07:12:12;;;;;;;58.07;21.33;;;4.30;99.90;;;;;;4997546;28;20185;-49
2021/11/11 07:14:41;;;;;;;41.77;21.30;;;4.40;99.90;;;;;;5002703;28;20185;-51
2021/11/11 07:17:07;;;;;;;56.57;22.97;;;4.40;99.90;;;;;;4998600;28;20320;-48
2021/11/11 07:19:33;;;;;;;43.40;21.07;;;4.60;99.90;;;;;;5001370;28;20559;-52
2021/11/11 07:22:03;;;;;;;50.63;23.17;;;4.90;99.90;;;;;;5003525;28;20418;-48
2021/11/11 07:24:30;;;;;;;47.13;21.40;;;5.00;99.90;;;;;;5000841;28;20435;-52
2021/11/11 07:26:57;;;;;;;49.67;20.77;;;4.80;99.90;;;;;;5002596;28;20486;-52
2021/11/11 07:29:23;;;;;;;48.83;25.00;;;4.80;99.90;;;;;;4998892;28;20443;-50
2021/11/11 07:31:52;;;;;;;41.50;21.70;;;4.80;99.90;;;;;;4982514;28;20467;-49
2021/11/11 07:34:23;;;;;;;39.73;21.57;;;4.80;99.90;;;;;;4993387;28;20519;-53
2021/11/11 07:36:49;;;;;;;38.00;20.20;;;4.90;99.90;;;;;;4998477;28;20953;-49
2021/11/11 07:39:15;;;;;;;41.23;22.90;;;5.00;99.90;;;;;;4995057;28;20482;-51
2021/11/11 07:41:43;;;;;;;42.30;20.57;;;5.20;99.90;;;;;;4999902;28;20436;-53
2021/11/11 07:44:10;;;;;;;46.43;21.40;;;5.20;99.90;;;;;;4999980;28;20460;-51
2021/11/11 07:46:37;;;;;;;42.80;23.77;;;5.10;99.90;;;;;;4997919;28;20472;-51
2021/11/11 07:49:03;;;;;;;35.53;19.73;;;5.20;99.90;;;;;;4998683;28;20811;-50
2021/11/11 07:51:29;;;;;;;36.80;20.17;;;5.00;99.90;;;;;;4997463;28;20461;-52
2021/11/11 07:53:55;;;;;;;33.47;19.13;;;5.10;99.90;;;;;;4998578;28;22282;-49
2021/11/11 07:56:20;;;;;;;32.50;19.70;;;5.20;99.90;;;;;;4999030;28;20713;-52
2021/11/11 07:58:46;;;;;;;35.80;20.20;;;5.10;99.90;;;;;;4989544;28;20254;-49
2021/11/11 08:01:12;;;;;;;38.00;18.87;;;5.30;99.90;;;;;;4998617;28;20220;-51
2021/11/11 08:03:37;;;;;;;41.33;19.80;;;5.20;99.90;;;;;;4996315;28;20190;-51
2021/11/11 08:06:03;;;;;;;32.90;19.13;;;5.20;99.90;;;;;;4965789;28;20193;-50
2021/11/11 08:08:30;;;;;;;36.70;20.73;;;5.10;99.90;;;;;;4996650;28;20292;-51
2021/11/11 08:10:57;;;;;;;42.33;20.83;;;4.90;99.90;;;;;;5000771;28;20555;-53
2021/11/11 08:13:22;;;;;;;35.77;19.40;;;5.10;99.90;;;;;;4995889;28;20199;-49
2021/11/11 08:15:48;;;;;;;33.97;18.57;;;5.10;99.90;;;;;;4988122;28;20823;-51
2021/11/11 08:18:13;;;;;;;32.00;19.73;;;5.20;99.90;;;;;;4999015;28;20203;-49
2021/11/11 08:20:39;;;;;;;42.03;19.73;;;5.00;99.90;;;;;;4997607;28;20297;-49
2021/11/11 08:23:06;;;;;;;34.87;19.90;;;5.00;99.90;;;;;;4998365;28;20208;-51
2021/11/11 08:25:32;;;;;;;41.97;18.70;;;5.10;99.90;;;;;;4999924;28;20487;-48
2021/11/11 08:27:58;;;;;;;38.63;20.40;;;4.90;99.90;;;;;;4976775;28;20498;-53
2021/11/11 08:30:24;;;;;;;38.23;19.27;;;5.00;99.90;;;;;;5000649;28;20456;-49
2021/11/11 08:32:52;;;;;;;34.67;19.10;;;5.10;99.90;;;;;;5000718;28;20189;-50
2021/11/11 08:35:19;;;;;;;36.00;19.70;;;4.90;99.90;;;;;;4986368;28;20447;-54
2021/11/11 08:37:46;;;;;;;38.80;20.23;;;4.80;99.90;;;;;;4996439;28;20445;-54
2021/11/11 08:40:16;;;;;;;40.20;20.23;;;4.80;99.90;;;;;;4996052;28;20471;-49
2021/11/11 08:42:43;;;;;;;51.43;20.70;;;4.70;99.90;;;;;;4999219;28;20455;-54
2021/11/11 08:45:09;;;;;;;44.30;20.77;;;4.80;99.90;;;;;;4999758;28;20435;-51
2021/11/11 08:47:35;;;;;;;40.17;19.37;;;4.60;99.90;;;;;;4996147;28;20922;-52
2021/11/11 08:50:01;;;;;;;39.20;21.90;;;4.70;99.90;;;;;;5000354;28;20455;-49
2021/11/11 08:52:27;;;;;;;46.80;22.13;;;4.90;99.90;;;;;;4996899;28;20189;-51
2021/11/11 08:54:53;;;;;;;51.63;24.00;;;5.10;99.90;;;;;;5006650;28;20192;-49
2021/11/11 08:57:19;;;;;;;37.60;20.50;;;5.10;99.90;;;;;;4998147;28;20432;-49
2021/11/11 08:59:51;;;;;;;51.70;22.73;;;5.20;99.90;;;;;;4998972;28;20483;-49
2021/11/11 09:02:18;;;;;;;57.10;24.07;;;5.30;99.90;;;;;;4998651;28;20834;-48
2021/11/11 09:04:43;;;;;;;71.80;22.40;;;5.30;99.90;;;;;;4999670;28;20447;-52
2021/11/11 09:07:09;;;;;;;40.80;23.23;;;5.20;99.90;;;;;;4997357;28;20487;-52
2021/11/11 09:09:35;;;;;;;49.70;21.97;;;5.30;99.90;;;;;;4998960;28;20211;-49
2021/11/11 09:12:02;;;;;;;58.03;25.30;;;5.50;99.90;;;;;;4989902;28;20259;-49
2021/11/11 09:14:29;;;;;;;50.47;23.50;;;5.40;99.90;;;;;;4996865;28;20178;-50
2021/11/11 09:16:54;;;;;;;45.30;23.97;;;5.30;99.90;;;;;;4996477;28;20453;-50
2021/11/11 09:19:21;;;;;;;50.87;24.30;;;5.30;99.90;;;;;;4987096;28;20455;-47
2021/11/11 09:21:46;;;;;;;46.00;24.57;;;5.20;99.90;;;;;;4996765;28;20249;-50
2021/11/11 09:24:12;;;;;;;57.30;24.83;;;5.20;99.90;;;;;;4998294;28;20468;-54
2021/11/11 09:26:38;;;;;;;66.40;27.70;;;5.00;99.90;;;;;;5000246;28;20210;-54
2021/11/11 09:29:05;;;;;;;54.03;24.97;;;5.00;99.90;;;;;;4998347;28;20235;-54
2021/11/11 09:31:31;;;;;;;49.67;26.60;;;4.90;99.90;;;;;;4998302;28;20498;-54
2021/11/11 09:33:57;;;;;;;50.50;26.47;;;5.00;99.90;;;;;;4998906;28;20775;-51
2021/11/11 09:36:23;;;;;;;52.00;26.33;;;4.90;99.90;;;;;;4997452;28;20821;-56
2021/11/11 09:38:49;;;;;;;63.63;28.07;;;4.80;99.90;;;;;;5001726;28;20223;-53
2021/11/11 09:41:17;;;;;;;53.27;26.80;;;4.80;99.90;;;;;;5000362;28;20652;-53
2021/11/11 09:43:43;;;;;;;55.53;26.93;;;4.90;99.90;;;;;;4996586;28;20444;-54
2021/11/11 09:46:11;;;;;;;50.37;25.53;;;5.00;99.90;;;;;;4998220;28;20437;-52
2021/11/11 09:48:39;;;;;;;51.67;26.50;;;5.10;99.90;;;;;;4997973;28;20210;-53
2021/11/11 09:51:06;;;;;;;40.17;23.00;;;5.30;99.90;;;;;;4998833;28;20460;-52
2021/11/11 09:53:34;;;;;;;45.30;24.73;;;5.30;99.90;;;;;;5003525;28;20495;-54
2021/11/11 09:58:45;;;;;;;52.63;26.97;;;5.20;99.90;;;;;;5001028;28;20438;-55
2021/11/11 10:01:15;;;;;;;43.10;23.20;;;5.20;99.90;;;;;;5002839;28;20480;-52
2021/11/11 10:03:42;;;;;;;50.27;26.00;;;5.10;99.90;;;;;;4999053;28;20547;-51
2021/11/11 10:06:13;;;;;;;50.83;26.00;;;5.20;99.90;;;;;;5000908;28;20432;-52
2021/11/11 10:08:43;;;;;;;45.37;24.90;;;5.00;99.90;;;;;;5003340;28;20494;-52
2021/11/11 10:11:12;;;;;;;45.53;24.17;;;5.00;99.90;;;;;;4997811;28;21870;-54
2021/11/11 10:13:39;;;;;;;49.97;27.67;;;5.10;99.90;;;;;;5006819;28;20429;-53
2021/11/11 10:16:12;;;;;;;46.03;26.03;;;5.00;99.90;;;;;;4998223;28;20451;-54
2021/11/11 10:18:43;;;;;;;50.10;25.50;;;5.20;99.90;;;;;;4999097;28;20460;-54
2021/11/11 10:24:24;;;;;;;49.00;25.50;;;5.20;99.90;;;;;;5000103;28;20508;-53
2021/11/11 10:27:00;;;;;;;45.23;25.97;;;5.40;99.90;;;;;;4994694;28;20571;-55
2021/11/11 10:29:30;;;;;;;42.40;26.93;;;5.50;99.90;;;;;;4990583;28;20441;-45
2021/11/11 10:32:00;;;;;;;42.30;24.67;;;5.40;99.90;;;;;;4997755;28;20494;-46
2021/11/11 10:34:26;;;;;;;46.70;26.33;;;5.40;99.90;;;;;;5000041;28;20463;-48
2021/11/11 10:36:54;;;;;;;41.63;25.40;;;5.50;99.90;;;;;;4997526;28;20930;-46
2021/11/11 10:39:24;;;;;;;45.83;25.20;;;5.50;99.90;;;;;;5000640;28;20547;-45
2021/11/11 10:41:51;;;;;;;51.57;25.90;;;5.50;99.90;;;;;;4998316;28;20444;-45
2021/11/11 10:44:29;;;;;;;49.43;25.70;;;5.60;99.90;;;;;;5001029;28;20582;-45
2021/11/11 10:46:57;;;;;;;47.47;25.50;;;5.70;99.90;;;;;;4999216;28;20533;-48
2021/11/11 10:49:37;;;;;;;52.80;27.10;;;5.80;99.90;;;;;;5002098;28;20432;-47
2021/11/11 10:52:23;;;;;;;42.03;24.23;;;5.70;99.90;;;;;;5007041;28;20427;-48
2021/11/11 10:55:07;;;;;;;46.57;24.17;;;5.60;99.90;;;;;;4999786;28;20841;-46
2021/11/11 10:57:41;;;;;;;44.30;24.30;;;5.60;99.90;;;;;;4995939;28;20556;-49
2021/11/11 11:00:33;;;;;;;48.47;25.57;;;5.60;99.90;;;;;;4996892;28;20472;-47
2021/11/11 11:03:09;;;;;;;51.37;24.70;;;5.40;99.90;;;;;;5001361;28;20428;-49
2021/11/11 11:05:47;;;;;;;43.70;25.03;;;5.60;99.90;;;;;;4997813;28;20446;-50
2021/11/11 11:08:16;;;;;;;51.47;24.23;;;5.50;99.90;;;;;;5001401;28;20467;-50
2021/11/11 11:10:45;;;;;;;49.53;25.03;;;5.60;99.90;;;;;;4995238;28;20587;-49
2021/11/11 11:13:17;;;;;;;58.23;27.00;;;5.70;99.90;;;;;;4997321;28;20556;-49
2021/11/11 11:15:50;;;;;;;44.37;23.93;;;5.90;99.90;;;;;;4994732;28;20435;-50
2021/11/11 11:18:19;;;;;;;50.10;25.03;;;5.80;99.90;;;;;;5001091;28;21189;-48
2021/11/11 11:20:46;;;;;;;47.40;26.70;;;5.60;99.90;;;;;;4998420;28;20482;-48
2021/11/11 11:23:12;;;;;;;47.50;26.30;;;5.50;99.90;;;;;;5000916;28;20436;-51
2021/11/11 11:25:47;;;;;;;45.43;25.83;;;5.60;99.90;;;;;;4996834;28;20507;-46
2021/11/11 11:28:29;;;;;;;41.73;25.07;;;5.60;99.90;;;;;;4992666;28;20638;-48
2021/11/11 11:30:57;;;;;;;44.10;24.83;;;5.70;99.90;;;;;;5000657;28;20452;-50
2021/11/11 11:33:33;;;;;;;43.63;23.30;;;5.70;99.90;;;;;;5000478;28;20440;-52
2021/11/11 11:35:59;;;;;;;38.87;23.30;;;6.00;99.90;;;;;;4992751;28;20428;-46
2021/11/11 11:38:27;;;;;;;40.87;24.90;;;5.60;99.90;;;;;;4998638;28;20436;-46
2021/11/11 11:40:53;;;;;;;44.60;24.77;;;5.60;99.90;;;;;;4993279;28;20468;-47
2021/11/11 11:43:34;;;;;;;44.73;24.03;;;5.60;99.90;;;;;;4996895;28;20456;-48
2021/11/11 11:46:16;;;;;;;40.87;24.33;;;5.80;99.90;;;;;;4990881;28;20533;-48
2021/11/11 11:48:44;;;;;;;40.80;22.90;;;6.00;99.90;;;;;;4998341;28;20526;-47
2021/11/11 11:51:15;;;;;;;40.50;25.03;;;6.20;99.90;;;;;;4997219;28;20448;-48
2021/11/11 11:54:02;;;;;;;42.37;23.47;;;6.20;99.90;;;;;;4995888;28;20432;-49
2021/11/11 11:56:35;;;;;;;42.30;24.33;;;6.20;99.90;;;;;;4998454;28;20453;-48
2021/11/11 11:59:05;;;;;;;46.17;25.23;;;6.10;99.90;;;;;;4996258;28;20445;-48
2021/11/11 12:09:40;;;;;;;47.00;26.40;;;6.50;99.90;;;;;;4994127;28;20460;-48
2021/11/11 12:40:34;;;;;;;49.63;27.37;;;7.10;99.90;;;;;;4996904;28;20961;-46
2021/11/11 12:43:14;;;;;;;52.83;28.10;;;6.70;99.90;;;;;;4995640;28;20420;-52
2021/11/11 12:45:41;;;;;;;53.60;27.77;;;6.60;99.90;;;;;;4989883;28;20440;-46
2021/11/11 12:48:10;;;;;;;49.97;29.10;;;6.60;99.90;;;;;;4997404;28;20823;-46
2021/11/11 12:50:48;;;;;;;54.87;30.20;;;6.80;99.90;;;;;;4993033;28;20439;-48
2021/11/11 12:53:13;;;;;;;46.87;28.90;;;6.60;99.90;;;;;;5001153;28;20941;-46
2021/11/11 12:55:55;;;;;;;58.23;31.30;;;6.50;99.90;;;;;;4997365;28;20432;-46
2021/11/11 12:58:33;;;;;;;50.77;28.53;;;6.40;99.90;;;;;;5000053;28;20570;-44
2021/11/11 13:01:04;;;;;;;57.93;29.90;;;6.70;99.90;;;;;;4998426;28;20569;-45
2021/11/11 13:04:01;;;;;;;53.93;30.47;;;6.70;99.90;;;;;;4998912;28;20428;-44
2021/11/11 13:06:36;;;;;;;59.73;31.03;;;6.30;99.90;;;;;;4998650;28;20490;-46
2021/11/11 13:09:11;;;;;;;52.13;30.57;;;6.50;99.90;;;;;;4995034;28;20441;-45
2021/11/11 13:11:42;;;;;;;58.17;30.77;;;6.50;99.90;;;;;;4998265;28;21011;-46
2021/11/11 13:14:16;;;;;;;66.37;36.20;;;6.50;99.90;;;;;;4995965;28;20424;-45
2021/11/11 13:17:01;;;;;;;56.13;30.70;;;6.50;99.90;;;;;;4999440;28;20470;-45
2021/11/11 13:19:44;;;;;;;62.27;31.23;;;6.60;99.90;;;;;;4980033;28;20809;-45
2021/11/11 13:22:23;;;;;;;64.40;32.00;;;6.70;99.90;;;;;;4995656;28;20420;-45
2021/11/11 13:59:22;;;;;;;62.53;32.10;;;6.00;99.90;;;;;;5000570;28;20823;-44
2021/11/11 14:04:52;;;;;;;65.37;31.90;;;6.20;99.90;;;;;;4997230;28;20424;-45
2021/11/11 15:16:16;;;;;;;71.20;33.00;;;6.10;99.90;;;;;;5001057;28;20884;-46
2021/11/11 16:01:45;;;;;;;81.80;32.30;;;5.60;99.90;;;;;;4997791;28;20452;-45
2021/11/11 16:21:09;;;;;;;82.67;31.97;;;5.60;99.90;;;;;;4987853;28;20463;-50
2021/11/11 16:23:47;;;;;;;76.43;33.30;;;5.80;99.90;;;;;;4988710;28;20463;-53
2021/11/11 16:28:39;;;;;;;82.77;33.20;;;5.80;99.90;;;;;;4990871;28;20460;-52